Time;durP1;ratioP1;P1;durP2;ratioP2;P2;SDS_P1;SDS_P2;PMS_P1;PMS_P2;Temp;Humidity;BMP_temperature;BMP_pressure;BME280_temperature;BME280_humidity;BME280_pressure;Samples;Min_cycle;Max_cycle;Signal;HPM_P1;HPM_P2
2022/05/20 00:02:14;;;;;;;5.00;3.90;;;15.30;70.30;;;;;;5053760;28;20029;-15
2022/05/20 00:04:40;;;;;;;6.45;4.80;;;15.30;70.20;;;;;;5053550;28;20108;-13
2022/05/20 00:07:06;;;;;;;5.88;4.60;;;15.30;70.30;;;;;;5054214;28;20035;-14
2022/05/20 00:09:33;;;;;;;6.25;4.80;;;15.30;70.70;;;;;;5053904;28;20029;-15
2022/05/20 00:11:59;;;;;;;6.93;4.20;;;15.20;71.10;;;;;;5054164;28;20059;-15
2022/05/20 00:14:25;;;;;;;6.10;4.10;;;15.20;70.90;;;;;;5053635;28;20082;-14
2022/05/20 00:16:50;;;;;;;8.10;4.50;;;15.10;70.70;;;;;;5054361;28;20028;-15
2022/05/20 00:19:16;;;;;;;6.38;4.18;;;15.10;71.30;;;;;;5053731;28;20465;-14
2022/05/20 00:21:42;;;;;;;7.80;5.35;;;15.00;71.10;;;;;;5035825;28;20024;-15
2022/05/20 00:24:09;;;;;;;7.15;5.20;;;15.00;71.50;;;;;;5035828;28;20032;-14
2022/05/20 00:26:35;;;;;;;10.05;4.60;;;14.90;71.50;;;;;;5053470;28;20025;-15
2022/05/20 00:29:00;;;;;;;7.72;4.55;;;14.90;71.50;;;;;;5053800;28;20025;-15
2022/05/20 00:31:27;;;;;;;6.70;4.20;;;14.90;71.00;;;;;;5053958;28;20532;-13
2022/05/20 00:33:53;;;;;;;7.18;4.78;;;14.90;71.10;;;;;;5053387;28;20546;-14
2022/05/20 00:36:20;;;;;;;7.10;4.72;;;14.90;71.20;;;;;;5053303;28;20488;-12
2022/05/20 00:38:46;;;;;;;6.68;4.68;;;14.90;71.00;;;;;;5053870;28;20032;-12
2022/05/20 00:41:12;;;;;;;8.70;4.20;;;14.80;71.10;;;;;;5053575;28;20025;-13
2022/05/20 00:43:49;;;;;;;7.07;4.28;;;14.80;71.10;;;;;;5053332;28;20029;-15
2022/05/20 00:46:21;;;;;;;8.52;4.75;;;14.80;71.10;;;;;;5053151;28;20028;-16
2022/05/20 00:49:00;;;;;;;6.97;5.00;;;14.80;71.00;;;;;;5053200;28;20384;-15
2022/05/20 00:51:33;;;;;;;6.72;5.00;;;14.80;71.10;;;;;;5035401;28;20032;-14
2022/05/20 00:54:02;;;;;;;6.07;4.30;;;14.80;71.50;;;;;;5053341;28;20021;-15
2022/05/20 00:56:36;;;;;;;6.22;3.70;;;14.80;71.80;;;;;;5053045;28;20029;-14
2022/05/20 00:59:05;;;;;;;5.95;4.15;;;14.70;71.50;;;;;;5035338;28;20077;-15
2022/05/20 01:01:32;;;;;;;6.40;4.55;;;14.70;71.40;;;;;;5052954;28;20065;-15
2022/05/20 01:03:58;;;;;;;7.57;4.13;;;14.70;71.50;;;;;;5053020;28;20477;-14
2022/05/20 01:06:26;;;;;;;6.50;4.35;;;14.70;71.60;;;;;;5052873;28;20075;-17
2022/05/20 01:08:52;;;;;;;7.18;4.75;;;14.70;71.70;;;;;;5053274;28;20021;-14
2022/05/20 01:11:18;;;;;;;6.00;4.50;;;14.70;71.80;;;;;;5053233;28;20032;-13
2022/05/20 01:13:47;;;;;;;7.30;4.57;;;14.70;71.90;;;;;;5053171;28;20029;-15
2022/05/20 01:16:15;;;;;;;6.40;4.15;;;14.60;71.80;;;;;;5055763;28;20481;-15
2022/05/20 01:18:44;;;;;;;8.05;5.20;;;14.70;71.90;;;;;;5059432;28;20488;-14
2022/05/20 01:21:11;;;;;;;7.88;5.22;;;14.50;72.10;;;;;;5059937;28;20022;-14
2022/05/20 01:23:38;;;;;;;8.52;5.82;;;14.60;72.00;;;;;;5059528;28;20032;-13
2022/05/20 01:26:06;;;;;;;8.20;5.05;;;14.50;72.20;;;;;;5041706;28;20516;-16
2022/05/20 01:28:33;;;;;;;8.23;5.35;;;14.50;72.40;;;;;;5059517;28;20063;-14
2022/05/20 01:31:09;;;;;;;9.55;5.25;;;14.40;73.00;;;;;;5059762;28;20044;-15
2022/05/20 01:33:39;;;;;;;8.15;5.35;;;14.40;72.50;;;;;;5059507;28;20029;-15
2022/05/20 01:36:11;;;;;;;8.40;5.45;;;14.40;72.40;;;;;;5059422;28;20040;-16
2022/05/20 01:38:38;;;;;;;7.05;4.57;;;14.40;72.50;;;;;;5041375;28;20025;-15
2022/05/20 01:41:11;;;;;;;8.50;5.80;;;14.40;72.60;;;;;;5059585;28;20079;-16
2022/05/20 01:43:45;;;;;;;8.10;5.82;;;14.40;72.90;;;;;;5059814;28;20025;-14
2022/05/20 01:46:13;;;;;;;6.32;5.20;;;14.40;72.90;;;;;;5059600;28;20025;-17
2022/05/20 01:48:49;;;;;;;6.88;4.80;;;14.30;73.00;;;;;;5059560;28;20033;-14
2022/05/20 01:51:18;;;;;;;7.97;5.00;;;14.30;72.90;;;;;;5059579;28;20040;-16
2022/05/20 01:53:58;;;;;;;8.90;5.82;;;14.30;73.10;;;;;;5059493;28;20025;-14
2022/05/20 01:56:41;;;;;;;7.90;5.53;;;14.20;73.90;;;;;;5059121;28;20507;-16
2022/05/20 01:59:18;;;;;;;7.60;4.87;;;14.20;74.30;;;;;;5059400;28;20025;-15
2022/05/20 02:01:57;;;;;;;7.72;5.15;;;14.20;73.90;;;;;;5059159;28;20604;-15
2022/05/20 02:04:30;;;;;;;8.85;6.13;;;14.20;73.90;;;;;;5059152;28;20036;-15
2022/05/20 02:07:04;;;;;;;9.15;6.25;;;14.20;74.30;;;;;;5059708;28;20021;-14
2022/05/20 02:09:41;;;;;;;9.88;6.72;;;14.10;74.30;;;;;;5059654;28;20396;-15
2022/05/20 02:12:11;;;;;;;11.05;8.13;;;14.10;74.80;;;;;;5059378;28;20104;-14
2022/05/20 02:14:59;;;;;;;10.52;6.05;;;14.00;74.90;;;;;;5058800;28;20025;-17
2022/05/20 02:17:37;;;;;;;8.73;5.38;;;14.00;75.30;;;;;;5059023;28;20040;-14
2022/05/20 02:20:30;;;;;;;8.32;5.63;;;13.90;75.40;;;;;;5059315;28;20028;-15
2022/05/20 02:23:01;;;;;;;8.45;6.00;;;13.90;75.20;;;;;;5041809;28;20396;-15
2022/05/20 02:25:31;;;;;;;11.35;7.60;;;13.90;75.40;;;;;;5059041;28;20040;-14
2022/05/20 02:28:04;;;;;;;13.30;7.63;;;13.90;75.10;;;;;;5056825;28;20025;-15
2022/05/20 02:30:33;;;;;;;8.95;5.40;;;13.90;75.30;;;;;;5055636;28;20500;-14
2022/05/20 02:33:10;;;;;;;8.15;5.30;;;13.90;75.40;;;;;;5055967;28;20021;-16
2022/05/20 02:35:39;;;;;;;7.50;5.63;;;13.90;75.40;;;;;;5055997;28;20036;-16
2022/05/20 02:38:20;;;;;;;9.90;5.40;;;13.80;75.50;;;;;;5055664;28;20025;-16
2022/05/20 02:40:50;;;;;;;7.05;4.97;;;13.80;75.70;;;;;;5038616;28;20021;-15
2022/05/20 02:43:17;;;;;;;7.57;5.45;;;13.80;75.50;;;;;;5055889;28;20028;-15
2022/05/20 02:45:46;;;;;;;11.02;6.72;;;13.80;75.50;;;;;;5055349;28;20148;-14
2022/05/20 02:48:16;;;;;;;10.95;6.10;;;13.80;75.90;;;;;;5055882;28;20029;-15
2022/05/20 02:50:43;;;;;;;8.75;5.15;;;13.80;75.80;;;;;;5055463;28;20393;-15
2022/05/20 02:53:09;;;;;;;6.15;4.60;;;13.70;76.00;;;;;;5055298;28;20031;-15
2022/05/20 02:55:35;;;;;;;6.25;4.50;;;13.70;75.70;;;;;;5055207;28;20029;-14
2022/05/20 02:58:01;;;;;;;7.13;5.38;;;13.70;75.90;;;;;;5055316;28;20025;-16
2022/05/20 03:05:56;;;;;;;;;;;13.80;76.10;;;;;;5055952;28;20032;-13
2022/05/20 03:08:23;;;;;;;6.90;5.13;;;13.80;76.80;;;;;;5054964;28;19904;-13
2022/05/20 03:10:49;;;;;;;8.25;5.20;;;13.80;75.80;;;;;;5055650;28;20495;-15
2022/05/20 03:13:16;;;;;;;9.30;5.50;;;13.80;75.70;;;;;;5054992;28;20115;-13
2022/05/20 03:15:43;;;;;;;9.18;5.40;;;13.80;75.80;;;;;;5054982;28;20065;-14
2022/05/20 03:18:10;;;;;;;7.70;5.55;;;13.80;75.90;;;;;;5054813;28;20029;-14
2022/05/20 03:20:38;;;;;;;11.07;6.00;;;13.70;76.00;;;;;;5054655;28;20037;-14
2022/05/20 03:23:06;;;;;;;8.82;5.43;;;13.60;75.90;;;;;;5055104;28;20083;-15
2022/05/20 03:25:32;;;;;;;8.70;6.03;;;13.60;76.10;;;;;;5036939;28;20039;-16
2022/05/20 03:27:58;;;;;;;11.13;8.85;;;13.50;76.20;;;;;;5054703;28;20564;-16
2022/05/20 03:30:24;;;;;;;8.07;6.00;;;13.60;76.90;;;;;;5054452;28;20477;-15
2022/05/20 03:32:51;;;;;;;10.43;6.60;;;13.60;76.90;;;;;;5036731;28;20071;-16
2022/05/20 03:35:17;;;;;;;7.82;5.85;;;13.50;77.00;;;;;;5054989;28;20021;-15
2022/05/20 03:37:43;;;;;;;9.63;6.07;;;13.50;76.90;;;;;;5054738;28;20067;-15
2022/05/20 03:40:10;;;;;;;11.27;7.65;;;13.50;76.90;;;;;;5053631;28;20035;-15
2022/05/20 03:42:36;;;;;;;11.15;6.63;;;13.50;77.30;;;;;;5054291;28;20043;-15
2022/05/20 03:45:04;;;;;;;7.32;5.10;;;13.50;77.20;;;;;;5054479;28;20086;-15
2022/05/20 03:47:30;;;;;;;10.45;5.97;;;13.40;77.20;;;;;;5054595;28;20082;-15
2022/05/20 03:49:56;;;;;;;10.68;6.30;;;13.40;77.00;;;;;;5054306;28;20040;-13
2022/05/20 03:52:21;;;;;;;8.40;5.85;;;13.40;77.00;;;;;;5054103;28;20017;-14
2022/05/20 03:54:47;;;;;;;7.45;5.47;;;13.50;77.10;;;;;;5054093;28;20431;-15
2022/05/20 03:57:13;;;;;;;8.75;5.68;;;13.50;77.20;;;;;;5054155;28;20119;-15
2022/05/20 03:59:39;;;;;;;8.52;5.95;;;13.50;77.40;;;;;;5054224;28;20033;-15
2022/05/20 04:02:09;;;;;;;12.15;7.82;;;13.60;77.60;;;;;;5054065;28;20029;-14
2022/05/20 04:04:39;;;;;;;10.07;6.95;;;13.60;77.90;;;;;;5053905;28;20489;-15
2022/05/20 04:07:13;;;;;;;9.82;6.57;;;13.60;77.80;;;;;;5054067;28;20104;-16
2022/05/20 04:09:39;;;;;;;9.43;7.40;;;13.60;78.00;;;;;;5054228;28;20484;-15
2022/05/20 04:12:08;;;;;;;16.05;9.80;;;13.50;78.50;;;;;;5054178;28;20032;-16
2022/05/20 04:14:35;;;;;;;11.18;7.15;;;13.50;78.20;;;;;;5053572;28;20025;-16
2022/05/20 04:17:03;;;;;;;14.18;8.75;;;13.60;78.20;;;;;;5054000;28;20116;-17
2022/05/20 04:19:32;;;;;;;18.98;12.40;;;13.60;78.00;;;;;;5054079;28;20086;-16
2022/05/20 04:22:01;;;;;;;12.55;9.95;;;13.60;78.10;;;;;;5054010;28;20052;-14
2022/05/20 04:24:27;;;;;;;12.55;9.80;;;13.70;78.50;;;;;;5053426;28;20021;-16
2022/05/20 04:26:53;;;;;;;13.48;9.73;;;13.80;78.00;;;;;;5035819;28;20032;-14
2022/05/20 04:29:20;;;;;;;12.25;8.15;;;13.90;78.00;;;;;;5053880;28;20025;-15
2022/05/20 04:31:49;;;;;;;15.13;11.02;;;13.90;78.00;;;;;;5053829;28;20029;-16
2022/05/20 04:34:17;;;;;;;13.50;9.80;;;14.00;78.30;;;;;;5053262;28;20029;-15
2022/05/20 04:36:44;;;;;;;12.52;9.80;;;14.10;78.10;;;;;;5053763;28;20040;-14
2022/05/20 04:39:11;;;;;;;10.25;8.10;;;14.20;78.10;;;;;;5053484;28;20048;-15
2022/05/20 04:47:14;;;;;;;14.32;8.98;;;14.40;78.20;;;;;;5053791;28;19912;-14
2022/05/20 04:49:42;;;;;;;10.18;8.05;;;14.40;77.90;;;;;;5053594;28;20025;-14
2022/05/20 04:52:09;;;;;;;16.42;11.55;;;14.50;77.80;;;;;;5053147;28;20035;-14
2022/05/20 04:55:07;;;;;;;17.80;13.18;;;14.60;78.20;;;;;;5052940;28;20397;-14
2022/05/20 04:57:47;;;;;;;17.42;11.75;;;14.70;77.50;;;;;;5051103;28;20094;-15
2022/05/20 05:00:23;;;;;;;16.45;12.48;;;14.90;77.50;;;;;;5053479;28;20111;-14
2022/05/20 05:02:50;;;;;;;16.67;13.23;;;15.00;77.70;;;;;;5052983;28;20052;-15
2022/05/20 05:05:19;;;;;;;13.95;10.88;;;15.10;77.70;;;;;;5053344;28;20021;-14
2022/05/20 05:07:49;;;;;;;23.83;17.55;;;15.30;76.80;;;;;;5053227;28;20021;-16
2022/05/20 05:10:18;;;;;;;20.08;13.48;;;15.40;79.60;;;;;;5035023;28;20107;-14
2022/05/20 05:12:45;;;;;;;17.50;13.05;;;15.60;78.50;;;;;;5053009;28;20017;-16
2022/05/20 05:15:12;;;;;;;17.50;13.27;;;15.70;77.80;;;;;;5052782;28;20024;-15
2022/05/20 05:20:25;;;;;;;26.80;18.90;;;16.00;77.90;;;;;;5053031;28;20130;-14
2022/05/20 05:22:53;;;;;;;23.33;15.77;;;16.20;78.80;;;;;;5052885;28;20017;-15
2022/05/20 05:25:22;;;;;;;22.20;17.17;;;16.40;78.50;;;;;;5053187;28;20037;-15
2022/05/20 05:27:49;;;;;;;17.58;14.32;;;16.50;77.70;;;;;;5053187;28;20032;-14
2022/05/20 05:30:15;;;;;;;22.63;16.17;;;16.70;77.80;;;;;;5052967;28;20033;-15
2022/05/20 05:32:42;;;;;;;18.38;13.25;;;16.90;78.00;;;;;;5053069;28;20025;-14
2022/05/20 05:35:13;;;;;;;20.77;15.55;;;16.90;77.20;;;;;;5053150;28;20064;-14
2022/05/20 05:37:41;;;;;;;18.90;15.18;;;17.10;77.00;;;;;;5053028;28;20028;-16
2022/05/20 05:40:10;;;;;;;20.80;13.27;;;17.30;75.70;;;;;;5052914;28;20488;-14
2022/05/20 05:42:36;;;;;;;18.88;13.27;;;17.40;75.10;;;;;;5052826;28;20024;-14
2022/05/20 05:45:04;;;;;;;21.40;14.27;;;17.50;74.40;;;;;;5052493;28;20106;-16
2022/05/20 05:47:31;;;;;;;16.38;11.82;;;17.70;74.30;;;;;;5052850;28;20074;-16
2022/05/20 05:49:57;;;;;;;13.73;10.57;;;17.80;73.90;;;;;;5052588;28;20032;-14
2022/05/20 05:52:23;;;;;;;18.63;12.65;;;17.90;73.80;;;;;;5052510;28;20018;-14
2022/05/20 05:54:49;;;;;;;16.83;12.05;;;18.10;73.10;;;;;;5052753;28;20029;-16
2022/05/20 05:57:15;;;;;;;16.02;10.38;;;18.20;73.50;;;;;;5052497;28;20392;-15
2022/05/20 05:59:41;;;;;;;11.35;8.30;;;18.40;72.40;;;;;;5052859;28;20056;-14
2022/05/20 06:02:08;;;;;;;14.15;8.05;;;18.50;71.50;;;;;;5052549;28;20024;-14
2022/05/20 06:04:35;;;;;;;14.25;9.30;;;18.60;71.20;;;;;;5056204;28;20028;-16
2022/05/20 06:07:02;;;;;;;13.27;8.07;;;18.80;70.90;;;;;;5038405;28;20032;-14
2022/05/20 06:09:29;;;;;;;9.05;7.03;;;18.90;70.20;;;;;;5056499;28;20025;-17
2022/05/20 06:11:55;;;;;;;10.55;5.60;;;19.00;69.70;;;;;;5056431;28;20028;-14
2022/05/20 06:14:21;;;;;;;8.82;6.55;;;19.20;68.80;;;;;;5056000;28;20017;-15
2022/05/20 06:16:46;;;;;;;10.20;6.25;;;19.30;68.40;;;;;;5038267;28;20025;-14
2022/05/20 06:19:12;;;;;;;10.52;6.28;;;19.40;68.00;;;;;;5056236;28;20029;-16
2022/05/20 06:21:40;;;;;;;9.60;6.80;;;19.60;67.60;;;;;;5056023;28;20035;-13
2022/05/20 06:24:08;;;;;;;9.73;6.38;;;19.80;66.70;;;;;;5056538;28;20478;-15
2022/05/20 06:26:35;;;;;;;10.35;6.38;;;19.90;66.00;;;;;;5055776;28;20029;-16
2022/05/20 06:29:03;;;;;;;9.82;6.05;;;20.20;65.90;;;;;;5037987;28;20082;-14
2022/05/20 06:31:29;;;;;;;7.15;4.65;;;20.30;65.70;;;;;;5056139;28;20078;-16
2022/05/20 06:33:57;;;;;;;8.30;5.18;;;20.50;65.00;;;;;;5055935;28;20033;-14
2022/05/20 06:41:54;;;;;;;10.00;5.53;;;21.10;63.40;;;;;;5056056;28;20384;-13
2022/05/20 06:44:20;;;;;;;9.13;5.45;;;21.30;62.20;;;;;;5055313;28;20527;-16
2022/05/20 06:46:46;;;;;;;7.15;4.68;;;21.50;61.70;;;;;;5055815;28;20025;-14
2022/05/20 06:49:13;;;;;;;10.30;6.00;;;21.70;61.80;;;;;;5055500;28;20066;-15
2022/05/20 06:51:39;;;;;;;7.65;5.10;;;21.90;60.30;;;;;;5055748;28;20036;-14
2022/05/20 06:54:08;;;;;;;10.93;5.65;;;22.00;60.10;;;;;;5055331;28;20029;-14
2022/05/20 06:56:36;;;;;;;10.70;5.60;;;22.20;59.50;;;;;;5055137;28;20067;-14
2022/05/20 06:59:04;;;;;;;9.30;5.03;;;22.40;59.30;;;;;;5037541;28;20033;-14
2022/05/20 07:01:30;;;;;;;10.02;5.63;;;22.40;58.80;;;;;;5055496;28;20381;-14
2022/05/20 07:03:57;;;;;;;9.43;6.00;;;22.60;58.10;;;;;;5055426;28;20427;-14
2022/05/20 07:06:25;;;;;;;7.18;4.53;;;22.80;57.80;;;;;;5055040;28;20025;-14
2022/05/20 07:08:51;;;;;;;8.52;5.35;;;22.90;58.00;;;;;;5055803;28;20029;-16
2022/05/20 07:11:20;;;;;;;7.88;5.15;;;23.20;57.50;;;;;;5055332;28;20025;-16
2022/05/20 07:13:48;;;;;;;7.10;4.93;;;23.40;57.00;;;;;;5054947;28;20040;-14
2022/05/20 07:16:14;;;;;;;7.07;4.45;;;23.60;56.50;;;;;;5055051;28;20384;-14
2022/05/20 07:18:41;;;;;;;7.13;4.68;;;23.90;55.90;;;;;;5054994;28;20032;-16
2022/05/20 07:21:07;;;;;;;9.00;4.80;;;24.10;55.50;;;;;;5055239;28;20032;-13
2022/05/20 07:23:34;;;;;;;8.52;3.80;;;24.40;54.90;;;;;;5055185;28;20095;-13
2022/05/20 07:26:01;;;;;;;5.57;3.38;;;24.60;54.40;;;;;;5055118;28;20029;-13
2022/05/20 07:28:28;;;;;;;7.20;3.50;;;24.90;52.70;;;;;;5054794;28;20025;-14
2022/05/20 07:30:54;;;;;;;7.63;2.90;;;25.10;51.90;;;;;;5054732;28;20025;-14
2022/05/20 07:33:20;;;;;;;3.38;2.28;;;25.40;51.10;;;;;;5055041;28;20021;-13
2022/05/20 07:35:46;;;;;;;6.82;3.38;;;25.70;50.20;;;;;;5037174;28;20036;-13
2022/05/20 07:38:12;;;;;;;4.50;3.05;;;25.90;48.30;;;;;;5054889;28;20029;-14
2022/05/20 07:40:39;;;;;;;3.30;2.40;;;26.20;48.30;;;;;;5054477;28;20116;-13
2022/05/20 07:43:05;;;;;;;6.05;2.40;;;26.40;45.60;;;;;;5054914;28;20100;-14
2022/05/20 07:45:31;;;;;;;3.60;2.58;;;26.60;45.10;;;;;;5054417;28;20045;-13
2022/05/20 07:47:56;;;;;;;3.75;2.40;;;26.80;44.80;;;;;;5054258;28;20036;-13
2022/05/20 07:50:22;;;;;;;4.00;2.78;;;27.00;44.50;;;;;;5054122;28;20025;-13
2022/05/20 07:55:39;;;;;;;6.85;3.10;;;27.20;43.60;;;;;;5054317;28;20039;-13
2022/05/20 07:58:09;;;;;;;4.00;2.60;;;27.40;43.20;;;;;;5054327;28;20028;-13
2022/05/20 08:00:35;;;;;;;2.10;1.90;;;27.40;43.70;;;;;;5054107;28;20028;-15
2022/05/20 08:03:02;;;;;;;2.60;2.40;;;27.60;43.90;;;;;;5054298;28;20047;-13
2022/05/20 08:05:30;;;;;;;4.95;2.40;;;27.80;43.50;;;;;;5054092;28;20024;-13
2022/05/20 08:08:02;;;;;;;6.80;2.90;;;28.00;42.90;;;;;;5054318;28;20025;-13
2022/05/20 08:10:31;;;;;;;4.15;2.40;;;28.10;39.50;;;;;;5053832;28;20047;-14
2022/05/20 08:12:58;;;;;;;2.78;2.22;;;28.30;41.50;;;;;;5053908;28;20048;-14
2022/05/20 08:15:25;;;;;;;2.42;2.22;;;28.60;41.00;;;;;;5054036;28;20088;-13
2022/05/20 08:17:51;;;;;;;5.28;3.17;;;28.80;40.50;;;;;;5054040;28;20098;-13
2022/05/20 08:20:25;;;;;;;3.53;2.67;;;28.90;39.60;;;;;;5053483;28;20025;-13
2022/05/20 08:22:56;;;;;;;7.32;3.60;;;29.00;40.20;;;;;;5054177;28;20032;-15
2022/05/20 08:25:24;;;;;;;7.55;3.88;;;29.20;40.10;;;;;;5053650;28;20063;-14
2022/05/20 08:27:51;;;;;;;4.47;2.97;;;29.40;40.10;;;;;;5053843;28;20431;-13
2022/05/20 08:30:24;;;;;;;5.97;3.63;;;29.50;40.20;;;;;;5053348;28;20025;-13
2022/05/20 08:32:50;;;;;;;5.75;2.88;;;29.70;40.00;;;;;;5053848;28;20045;-13
2022/05/20 08:35:17;;;;;;;5.53;3.67;;;29.60;40.70;;;;;;5053739;28;20025;-12
2022/05/20 08:37:45;;;;;;;4.35;2.92;;;29.70;40.50;;;;;;5053713;28;20521;-13
2022/05/20 08:40:17;;;;;;;5.57;3.30;;;29.70;39.90;;;;;;5053414;28;20021;-12
2022/05/20 08:42:44;;;;;;;4.28;3.00;;;29.50;39.90;;;;;;5036304;28;20029;-14
2022/05/20 08:45:13;;;;;;;3.67;2.85;;;29.60;39.50;;;;;;5053179;28;20052;-14
2022/05/20 08:47:47;;;;;;;7.13;3.40;;;29.70;39.80;;;;;;5053080;28;20029;-14
2022/05/20 08:50:18;;;;;;;4.55;2.50;;;29.80;39.80;;;;;;5053355;28;20043;-14
2022/05/20 08:52:45;;;;;;;4.80;2.70;;;29.90;40.40;;;;;;5035692;28;20029;-13
2022/05/20 08:55:12;;;;;;;7.13;3.10;;;30.00;40.40;;;;;;5053545;28;20024;-13
2022/05/20 08:57:44;;;;;;;6.10;3.22;;;30.30;39.90;;;;;;5053460;28;20029;-13
2022/05/20 09:00:14;;;;;;;8.45;2.85;;;30.40;38.70;;;;;;5053477;28;20021;-14
2022/05/20 09:02:41;;;;;;;5.47;2.83;;;30.30;39.60;;;;;;5054026;28;20029;-13
2022/05/20 09:05:15;;;;;;;4.47;2.60;;;30.60;38.50;;;;;;5053076;28;20495;-13
2022/05/20 09:07:59;;;;;;;5.18;2.88;;;30.80;38.50;;;;;;5053041;28;20037;-13
2022/05/20 09:10:50;;;;;;;6.85;2.55;;;31.10;37.80;;;;;;5052800;28;20037;-13
2022/05/20 09:13:23;;;;;;;4.22;2.60;;;31.20;37.20;;;;;;5043572;28;20104;-13
2022/05/20 09:16:05;;;;;;;3.50;2.40;;;31.20;37.00;;;;;;5053226;28;20057;-13
2022/05/20 09:18:33;;;;;;;6.50;2.83;;;31.20;36.60;;;;;;5052949;28;20029;-14
2022/05/20 09:20:59;;;;;;;3.83;2.33;;;31.00;36.70;;;;;;5053189;28;20108;-13
2022/05/20 09:23:26;;;;;;;3.53;2.63;;;31.00;37.20;;;;;;5052894;28;20404;-13
2022/05/20 09:26:05;;;;;;;5.13;2.85;;;31.20;35.90;;;;;;5053068;28;20371;-13
2022/05/20 09:28:39;;;;;;;4.15;2.80;;;31.40;35.60;;;;;;5053050;28;20032;-13
2022/05/20 09:31:15;;;;;;;5.03;2.72;;;31.40;35.70;;;;;;5053316;28;20017;-13
2022/05/20 09:34:03;;;;;;;6.78;3.22;;;31.50;36.20;;;;;;5052801;28;20021;-13
2022/05/20 09:36:43;;;;;;;6.68;3.10;;;31.90;35.30;;;;;;5053283;28;20135;-13
2022/05/20 09:39:21;;;;;;;4.70;2.60;;;32.00;35.30;;;;;;5057194;28;20033;-13
2022/05/20 09:41:54;;;;;;;5.57;2.58;;;32.00;35.40;;;;;;5056814;28;20079;-13
2022/05/20 09:44:32;;;;;;;7.65;3.20;;;32.10;35.20;;;;;;5056362;28;20056;-13
2022/05/20 09:47:23;;;;;;;5.45;2.60;;;32.30;34.60;;;;;;5056689;28;20029;-13
2022/05/20 09:50:10;;;;;;;3.05;2.67;;;32.20;33.40;;;;;;5056944;28;20466;-13
2022/05/20 09:52:53;;;;;;;3.85;2.40;;;32.10;34.20;;;;;;5056706;28;20029;-14
2022/05/20 09:55:37;;;;;;;3.05;2.25;;;32.10;34.80;;;;;;5056538;28;20021;-13
2022/05/20 09:58:17;;;;;;;4.97;2.60;;;32.40;35.10;;;;;;5056638;28;20504;-12
2022/05/20 10:01:06;;;;;;;3.95;2.65;;;32.70;34.10;;;;;;5056750;28;20024;-15
2022/05/20 10:03:45;;;;;;;6.93;3.08;;;32.90;32.70;;;;;;5056168;28;20036;-14
2022/05/20 10:06:28;;;;;;;7.65;2.80;;;33.00;30.60;;;;;;5056493;28;20025;-14
2022/05/20 10:09:13;;;;;;;;;;;33.00;31.90;;;;;;5056792;28;20436;-13
2022/05/20 10:11:58;;;;;;;7.70;3.03;;;33.10;31.30;;;;;;5056511;28;19905;-13
2022/05/20 10:14:43;;;;;;;4.60;2.90;;;33.30;32.00;;;;;;5055907;28;20373;-13
2022/05/20 10:17:27;;;;;;;4.80;2.95;;;33.40;31.60;;;;;;5056186;28;20025;-13
2022/05/20 10:20:26;;;;;;;6.32;2.90;;;33.40;31.80;;;;;;5056403;28;20029;-15
2022/05/20 10:23:23;;;;;;;7.40;3.10;;;33.60;32.00;;;;;;5056533;28;20025;-14
2022/05/20 10:25:56;;;;;;;5.35;3.08;;;33.60;31.80;;;;;;5054824;28;20033;-13
2022/05/20 10:34:29;;;;;;;4.65;3.03;;;33.10;33.00;;;;;;5055743;28;20403;-14
2022/05/20 10:37:06;;;;;;;6.22;3.10;;;33.30;33.50;;;;;;5056019;28;20029;-13
2022/05/20 10:39:50;;;;;;;5.05;3.15;;;33.60;32.90;;;;;;5055737;28;20091;-13
2022/05/20 10:42:41;;;;;;;4.57;2.95;;;34.10;32.00;;;;;;5055414;28;20495;-13
2022/05/20 10:48:38;;;;;;;7.80;3.22;;;34.50;32.80;;;;;;5055473;28;20040;-13
2022/05/20 10:51:16;;;;;;;4.53;3.10;;;34.80;32.40;;;;;;5055841;28;20100;-14
2022/05/20 10:53:57;;;;;;;3.72;2.60;;;34.90;32.80;;;;;;5055362;28;20040;-14
2022/05/20 10:56:41;;;;;;;6.47;3.30;;;35.00;32.70;;;;;;5055368;28;20552;-14
2022/05/20 10:59:39;;;;;;;5.22;3.25;;;35.40;31.40;;;;;;5055773;28;20036;-14
2022/05/20 11:02:26;;;;;;;6.43;3.20;;;35.60;31.00;;;;;;5022945;28;20059;-13
2022/05/20 11:05:19;;;;;;;5.43;3.38;;;35.70;30.90;;;;;;5055267;28;20040;-14
2022/05/20 11:08:06;;;;;;;7.80;3.13;;;35.90;30.80;;;;;;5037715;28;20404;-14
2022/05/20 11:10:31;;;;;;;6.50;3.08;;;36.10;30.50;;;;;;5055078;28;20079;-13
2022/05/20 11:13:25;;;;;;;9.85;4.10;;;36.40;30.80;;;;;;5055403;28;20028;-13
2022/05/20 11:16:07;;;;;;;8.45;3.38;;;36.60;30.20;;;;;;5055268;28;20021;-14
2022/05/20 11:18:48;;;;;;;6.53;3.42;;;36.40;30.60;;;;;;5055058;28;20032;-14
2022/05/20 11:21:24;;;;;;;4.65;3.00;;;36.10;30.40;;;;;;5054995;28;20033;-14
2022/05/20 11:24:18;;;;;;;6.22;3.20;;;36.20;30.70;;;;;;5054868;28;20044;-13
2022/05/20 11:27:13;;;;;;;7.13;3.50;;;36.20;28.60;;;;;;5055368;28;20423;-13
2022/05/20 11:29:42;;;;;;;9.70;3.50;;;35.80;29.70;;;;;;5054855;28;20049;-14
2022/05/20 11:32:11;;;;;;;4.90;2.97;;;35.30;30.20;;;;;;5055052;28;20025;-13
2022/05/20 11:34:49;;;;;;;5.15;2.83;;;35.00;30.90;;;;;;5054316;28;20039;-14
2022/05/20 11:37:32;;;;;;;11.70;3.60;;;35.00;31.40;;;;;;5055096;28;20018;-14
2022/05/20 11:40:22;;;;;;;6.78;3.30;;;35.40;30.30;;;;;;5055001;28;20453;-14
2022/05/20 11:43:00;;;;;;;7.65;3.50;;;35.60;29.70;;;;;;5054579;28;20501;-14
2022/05/20 11:45:44;;;;;;;6.05;3.40;;;35.70;29.40;;;;;;5054394;28;20049;-14
2022/05/20 11:48:37;;;;;;;7.30;3.67;;;36.00;29.40;;;;;;5054702;28;20087;-14
2022/05/20 11:51:13;;;;;;;5.82;2.95;;;36.30;28.60;;;;;;5054442;28;20086;-14
2022/05/20 11:54:03;;;;;;;8.00;3.22;;;36.40;29.20;;;;;;5055174;28;20561;-14
2022/05/20 11:56:35;;;;;;;7.55;3.45;;;36.80;27.30;;;;;;5054191;28;20139;-14
2022/05/20 11:59:19;;;;;;;4.93;3.20;;;36.90;28.40;;;;;;5054517;28;20025;-13
2022/05/20 12:01:50;;;;;;;4.72;3.00;;;37.10;27.90;;;;;;5053123;28;20037;-14
2022/05/20 12:04:19;;;;;;;5.10;2.95;;;37.30;28.10;;;;;;5053989;28;20039;-14
2022/05/20 12:06:53;;;;;;;5.95;3.10;;;37.50;27.90;;;;;;5054051;28;20025;-14
2022/05/20 12:09:34;;;;;;;4.82;3.30;;;37.70;27.70;;;;;;5054335;28;20033;-14
2022/05/20 12:12:29;;;;;;;5.95;3.53;;;37.70;27.90;;;;;;5054479;28;20025;-13
2022/05/20 12:15:01;;;;;;;6.68;3.20;;;37.40;27.70;;;;;;5053830;28;20029;-13
2022/05/20 12:17:42;;;;;;;5.25;3.47;;;36.90;28.70;;;;;;5053921;28;20033;-14
2022/05/20 12:25:57;;;;;;;6.55;3.33;;;36.20;29.50;;;;;;5053804;28;20056;-14
2022/05/20 12:28:23;;;;;;;6.32;3.45;;;36.50;29.20;;;;;;5053442;28;20068;-13
2022/05/20 12:31:38;;;;;;;4.70;3.30;;;36.90;29.00;;;;;;5054100;28;20061;-14
2022/05/20 12:34:10;;;;;;;4.00;3.28;;;36.90;28.60;;;;;;5053622;28;20060;-14
2022/05/20 12:36:40;;;;;;;;;;;36.50;29.10;;;;;;5053837;28;20468;-13
2022/05/20 12:39:09;;;;;;;5.45;3.50;;;36.20;29.70;;;;;;5053496;28;19909;-13
2022/05/20 12:41:50;;;;;;;8.45;3.78;;;36.40;29.70;;;;;;5035627;28;20037;-13
2022/05/20 12:44:15;;;;;;;7.03;3.17;;;36.90;29.40;;;;;;5053023;28;20404;-13
2022/05/20 12:47:03;;;;;;;4.53;3.10;;;37.10;29.40;;;;;;5053688;28;20537;-13
2022/05/20 12:49:59;;;;;;;3.63;2.75;;;37.50;28.20;;;;;;5053244;28;20526;-14
2022/05/20 12:52:35;;;;;;;4.60;2.97;;;37.70;28.20;;;;;;5042606;28;20068;-14
2022/05/20 12:55:28;;;;;;;9.50;3.40;;;37.90;28.20;;;;;;5053540;28;20029;-14
2022/05/20 12:57:55;;;;;;;;;;;37.90;27.70;;;;;;5053652;28;20029;-14
2022/05/20 13:00:29;;;;;;;7.88;3.60;;;37.50;27.90;;;;;;5052969;28;19936;-14
2022/05/20 13:03:05;;;;;;;6.28;3.45;;;37.00;28.80;;;;;;5035943;28;20068;-14
2022/05/20 13:05:39;;;;;;;4.72;3.10;;;36.40;29.70;;;;;;5035400;28;20029;-14
2022/05/20 13:08:14;;;;;;;6.97;3.50;;;36.20;29.60;;;;;;5053469;28;20021;-13
2022/05/20 13:10:41;;;;;;;6.45;3.20;;;36.20;29.70;;;;;;5053346;28;20132;-13
2022/05/20 13:13:23;;;;;;;5.15;2.50;;;36.20;30.30;;;;;;5053027;28;20104;-13
2022/05/20 13:15:59;;;;;;;4.45;2.30;;;36.00;32.00;;;;;;5053425;28;20029;-14
2022/05/20 13:18:29;;;;;;;3.92;2.33;;;36.00;32.80;;;;;;5052840;28;20482;-14
2022/05/20 13:21:16;;;;;;;3.70;2.30;;;36.20;32.60;;;;;;5053296;28;20021;-13
2022/05/20 13:23:45;;;;;;;4.20;2.35;;;36.50;32.20;;;;;;5053183;28;20489;-13
2022/05/20 13:26:27;;;;;;;8.00;2.72;;;36.70;31.80;;;;;;5053063;28;20025;-14
2022/05/20 13:29:10;;;;;;;7.50;2.30;;;36.70;31.80;;;;;;5052905;28;20457;-14
2022/05/20 13:31:36;;;;;;;;;;;36.50;32.10;;;;;;5053478;28;20025;-13
2022/05/20 13:34:02;;;;;;;4.72;2.83;;;36.60;31.90;;;;;;5053097;28;19912;-13
2022/05/20 13:36:35;;;;;;;4.82;2.63;;;36.60;32.70;;;;;;5052829;28;20029;-13
2022/05/20 13:39:03;;;;;;;4.38;2.30;;;36.40;32.40;;;;;;5052915;28;20033;-14
2022/05/20 13:41:32;;;;;;;6.35;2.50;;;36.40;32.70;;;;;;5053080;28;20025;-14
2022/05/20 13:44:01;;;;;;;2.88;2.28;;;36.30;33.20;;;;;;5052653;28;20049;-14
2022/05/20 13:49:25;;;;;;;3.80;2.35;;;36.10;33.50;;;;;;5052878;28;20036;-14
2022/05/20 13:52:06;;;;;;;3.55;2.35;;;36.20;33.10;;;;;;5053025;28;20025;-14